createdAt,value
2018-01-05T00:01:47.843Z,0.70
2018-01-05T00:06:50.443Z,0.70
2018-01-05T00:11:53.562Z,0.83
2018-01-05T00:16:56.358Z,0.80
2018-01-05T00:21:59.096Z,1.10
2018-01-05T00:27:01.760Z,1.00
2018-01-05T00:32:04.367Z,0.67
2018-01-05T00:37:06.984Z,1.03
2018-01-05T00:42:11.128Z,1.00
2018-01-05T00:47:14.062Z,0.90
2018-01-05T00:52:17.232Z,1.07
2018-01-05T00:57:19.849Z,0.80
2018-01-05T01:02:22.449Z,0.83
2018-01-05T01:07:25.843Z,0.80
2018-01-05T01:12:28.422Z,0.97
2018-01-05T01:17:31.023Z,0.80
2018-01-05T01:22:33.633Z,0.70
2018-01-05T01:27:36.203Z,0.80
2018-01-05T01:32:38.802Z,0.80
2018-01-05T01:37:41.416Z,1.00
2018-01-05T01:42:44.005Z,0.67
2018-01-05T01:47:47.358Z,0.70
2018-01-05T01:52:50.523Z,0.60
2018-01-05T01:57:53.111Z,0.83
2018-01-05T02:02:56.361Z,0.70
2018-01-05T02:07:59.008Z,0.90
2018-01-05T02:13:02.078Z,0.80
2018-01-05T02:18:04.695Z,0.57
2018-01-05T02:23:07.869Z,0.70
2018-01-05T02:28:10.467Z,0.67
2018-01-05T02:33:13.060Z,0.60
2018-01-05T02:38:16.679Z,0.70
2018-01-05T02:43:19.322Z,0.70
2018-01-05T02:48:21.893Z,0.80
2018-01-05T02:53:24.718Z,0.70
2018-01-05T02:58:27.384Z,0.60
2018-01-05T03:03:30.001Z,0.70
2018-01-05T03:08:32.582Z,0.80
2018-01-05T03:13:35.155Z,1.00
2018-01-05T03:18:37.748Z,0.50
2018-01-05T03:23:40.355Z,0.50
2018-01-05T03:28:42.907Z,0.90
2018-01-05T03:33:45.501Z,0.90
2018-01-05T03:38:49.578Z,0.60
2018-01-05T03:43:52.150Z,0.70
2018-01-05T03:48:54.712Z,0.67
2018-01-05T03:53:57.310Z,0.60
2018-01-05T03:58:59.885Z,0.70
2018-01-05T04:04:02.497Z,0.77
2018-01-05T04:09:05.097Z,0.77
2018-01-05T04:14:07.658Z,0.50
2018-01-05T04:19:10.304Z,0.63
2018-01-05T04:24:12.878Z,0.60
2018-01-05T04:29:16.288Z,0.60
2018-01-05T04:34:18.891Z,0.73
2018-01-05T04:39:21.507Z,0.60
2018-01-05T04:44:24.830Z,0.70
2018-01-05T04:49:27.410Z,0.70
2018-01-05T04:54:30.003Z,0.60
2018-01-05T04:59:32.570Z,0.57
2018-01-05T05:04:35.125Z,0.93
2018-01-05T05:09:37.683Z,0.50
2018-01-05T05:14:41.023Z,0.60
2018-01-05T05:19:43.597Z,0.77
2018-01-05T05:24:46.156Z,0.57
2018-01-05T05:29:48.779Z,0.60
2018-01-05T05:34:51.410Z,0.80
2018-01-05T05:39:54.046Z,0.60
2018-01-05T05:44:56.636Z,0.70
2018-01-05T05:49:59.207Z,0.77
2018-01-05T05:55:01.833Z,0.73
2018-01-05T06:00:05.145Z,0.63
2018-01-05T06:05:07.836Z,0.60
2018-01-05T06:10:10.431Z,0.57
2018-01-05T06:15:13.026Z,0.60
2018-01-05T06:20:15.620Z,0.60
2018-01-05T06:25:18.252Z,0.50
2018-01-05T06:30:20.837Z,0.50
2018-01-05T06:35:23.444Z,0.73
2018-01-05T06:40:26.119Z,0.50
2018-01-05T06:45:28.724Z,0.50
2018-01-05T06:50:31.662Z,0.60
2018-01-05T06:55:34.234Z,0.70
2018-01-05T07:00:36.823Z,0.60
2018-01-05T07:05:39.403Z,0.50
2018-01-05T07:10:41.998Z,0.50
2018-01-05T07:15:44.568Z,0.60
2018-01-05T07:20:47.250Z,0.50
2018-01-05T07:25:50.184Z,0.67
2018-01-05T07:30:52.799Z,0.73
2018-01-05T07:35:55.420Z,0.70
2018-01-05T07:40:58.075Z,0.63
2018-01-05T07:46:00.709Z,0.60
2018-01-05T07:51:03.342Z,0.53
2018-01-05T07:56:05.968Z,0.60
2018-01-05T08:01:08.565Z,0.40
2018-01-05T08:06:11.126Z,0.50
2018-01-05T08:11:13.717Z,0.60
2018-01-05T08:16:16.395Z,0.60
2018-01-05T08:21:19.075Z,0.60
2018-01-05T08:26:21.974Z,0.70
2018-01-05T08:31:24.572Z,2.40
2018-01-05T08:36:27.163Z,2.43
2018-01-05T08:41:29.725Z,1.50
2018-01-05T08:46:32.297Z,1.90
2018-01-05T08:51:34.872Z,1.93
2018-01-05T08:56:37.484Z,2.17
2018-01-05T09:01:40.047Z,1.40
2018-01-05T09:06:42.618Z,1.97
2018-01-05T09:11:45.184Z,1.90
2018-01-05T09:16:47.750Z,1.70
2018-01-05T09:21:50.316Z,1.57
2018-01-05T09:26:52.947Z,1.30
2018-01-05T09:31:56.183Z,1.80
2018-01-05T09:36:58.902Z,1.47
2018-01-05T09:42:01.556Z,1.90
2018-01-05T09:47:04.140Z,1.53
2018-01-05T09:52:06.728Z,1.67
2018-01-05T09:57:09.331Z,1.40
2018-01-05T10:02:12.707Z,1.57
2018-01-05T10:07:15.361Z,1.57
2018-01-05T10:12:17.979Z,1.53
2018-01-05T10:17:20.594Z,1.37
2018-01-05T10:22:23.182Z,1.37
2018-01-05T10:27:25.782Z,1.30
2018-01-05T10:32:28.376Z,1.43
2018-01-05T10:37:30.969Z,2.33
2018-01-05T10:42:34.372Z,1.60
2018-01-05T10:47:36.920Z,1.27
2018-01-05T10:52:39.512Z,1.90
2018-01-05T10:57:42.099Z,1.67
2018-01-05T11:02:44.694Z,1.97
2018-01-05T11:07:47.276Z,1.50
2018-01-05T11:12:49.919Z,1.60
2018-01-05T11:17:52.558Z,1.90
2018-01-05T11:22:55.211Z,1.77
2018-01-05T11:27:57.984Z,1.90
2018-01-05T11:33:01.518Z,1.67
2018-01-05T11:38:04.151Z,1.40
2018-01-05T11:43:06.735Z,4.10
2018-01-05T11:48:09.319Z,1.40
2018-01-05T11:53:12.680Z,1.50
2018-01-05T11:58:15.294Z,1.27
2018-01-05T12:03:17.934Z,1.70
2018-01-05T12:08:20.513Z,1.27
2018-01-05T12:13:23.088Z,1.47
2018-01-05T12:18:27.215Z,1.37
2018-01-05T12:23:31.465Z,1.53
2018-01-05T12:28:34.227Z,1.60
2018-01-05T12:33:36.821Z,1.90
2018-01-05T12:38:39.653Z,1.30
2018-01-05T12:43:42.240Z,1.50
2018-01-05T12:48:45.586Z,1.80
2018-01-05T12:53:48.667Z,2.40
2018-01-05T12:58:51.459Z,1.80
2018-01-05T13:03:54.265Z,1.87
2018-01-05T13:08:56.831Z,1.50
2018-01-05T13:13:59.515Z,1.83
2018-01-05T13:19:02.473Z,2.30
2018-01-05T13:24:05.116Z,1.93
2018-01-05T13:29:07.759Z,1.40
2018-01-05T13:34:10.325Z,1.80
2018-01-05T13:39:13.154Z,1.57
2018-01-05T13:44:15.753Z,1.40
2018-01-05T13:49:18.318Z,1.37
2018-01-05T13:54:20.899Z,1.97
2018-01-05T13:59:24.118Z,2.00
2018-01-05T14:04:26.731Z,1.97
2018-01-05T14:09:30.068Z,2.00
2018-01-05T14:14:32.663Z,1.50
2018-01-05T14:19:35.290Z,2.03
2018-01-05T14:24:37.900Z,1.47
2018-01-05T14:29:40.526Z,1.50
2018-01-05T14:34:43.187Z,1.50
2018-01-05T14:39:45.784Z,1.53
2018-01-05T14:44:49.339Z,1.67
2018-01-05T14:49:52.560Z,1.80
2018-01-05T14:54:55.146Z,1.40
2018-01-05T14:59:57.732Z,1.43
2018-01-05T15:05:00.320Z,1.30
2018-01-05T15:10:03.703Z,1.90
2018-01-05T15:15:06.277Z,1.50
2018-01-05T15:20:08.926Z,1.60
2018-01-05T15:25:11.586Z,1.37
2018-01-05T15:30:14.238Z,1.60
2018-01-05T15:35:16.813Z,1.53
2018-01-05T15:40:20.247Z,1.83
2018-01-05T15:45:23.578Z,1.50
2018-01-05T15:50:26.219Z,1.70
2018-01-05T15:55:29.339Z,1.37
2018-01-05T16:00:31.929Z,1.70
2018-01-05T16:05:34.713Z,1.60
2018-01-05T16:10:37.349Z,1.47
2018-01-05T16:15:39.946Z,1.20
2018-01-05T16:20:43.354Z,1.27
2018-01-05T16:25:48.025Z,1.33
2018-01-05T16:30:54.540Z,1.80
2018-01-05T16:35:57.964Z,1.20
2018-01-05T16:41:06.479Z,1.80
2018-01-05T16:46:10.080Z,1.40
2018-01-05T16:51:12.808Z,1.27
2018-01-05T16:56:16.754Z,1.00
2018-01-05T17:01:20.474Z,1.10
2018-01-05T17:06:23.102Z,0.83
2018-01-05T17:11:26.817Z,1.10
2018-01-05T17:16:29.567Z,1.00
2018-01-05T17:21:32.254Z,1.00
2018-01-05T17:26:38.946Z,1.10
2018-01-05T17:31:41.703Z,1.33
2018-01-05T17:36:50.544Z,0.90
2018-01-05T17:41:53.901Z,1.03
2018-01-05T17:46:56.628Z,0.83
2018-01-05T17:51:59.214Z,1.10
2018-01-05T17:57:01.843Z,1.03
2018-01-05T18:02:05.238Z,1.00
2018-01-05T18:07:07.895Z,1.00
2018-01-05T18:12:10.668Z,0.80
2018-01-05T18:17:13.319Z,1.33
2018-01-05T18:22:16.013Z,1.70
2018-01-05T18:27:18.703Z,1.57
2018-01-05T18:32:21.880Z,1.80
2018-01-05T18:37:25.254Z,1.67
2018-01-05T18:42:27.855Z,2.73
2018-01-05T18:47:30.425Z,2.43
2018-01-05T18:52:33.025Z,2.50
2018-01-05T18:57:35.645Z,2.73
2018-01-05T19:02:39.075Z,2.97
2018-01-05T19:07:41.695Z,2.33
2018-01-05T19:12:44.374Z,1.83
2018-01-05T19:17:47.026Z,2.13
2018-01-05T19:22:49.627Z,2.30
2018-01-05T19:27:52.222Z,2.00
2018-01-05T19:32:58.840Z,1.83
2018-01-05T19:38:06.502Z,1.77
2018-01-05T19:43:11.721Z,2.00
2018-01-05T19:48:15.193Z,1.93
2018-01-05T19:53:24.891Z,2.23
2018-01-05T19:58:29.570Z,1.83
2018-01-05T20:03:32.182Z,1.60
2018-01-05T20:08:34.809Z,1.90
2018-01-05T20:13:37.751Z,2.10
2018-01-05T20:18:41.353Z,2.00
2018-01-05T20:23:50.615Z,1.90
2018-01-05T20:28:53.287Z,1.70
2018-01-05T20:33:59.619Z,1.93
2018-01-05T20:39:04.190Z,2.53
2018-01-05T20:44:07.710Z,1.53
2018-01-05T20:49:12.353Z,1.93
2018-01-05T20:54:18.108Z,1.47
2018-01-05T20:59:20.705Z,2.20
2018-01-05T21:04:23.445Z,1.50
2018-01-05T21:09:26.204Z,1.80
2018-01-05T21:14:29.144Z,1.50
2018-01-05T21:19:32.363Z,1.80
2018-01-05T21:24:36.102Z,1.37
2018-01-05T21:29:38.984Z,1.50
2018-01-05T21:34:42.542Z,1.57
2018-01-05T21:39:45.535Z,1.60
2018-01-05T21:44:50.349Z,1.10
2018-01-05T21:49:52.959Z,1.40
2018-01-05T21:54:56.372Z,1.57
2018-01-05T22:00:02.729Z,1.43
2018-01-05T22:05:06.553Z,1.80
2018-01-05T22:10:09.231Z,1.73
2018-01-05T22:15:11.813Z,1.80
2018-01-05T22:20:16.484Z,1.43
2018-01-05T22:25:20.611Z,1.60
2018-01-05T22:30:24.728Z,1.70
2018-01-05T22:35:31.701Z,1.53
2018-01-05T22:40:34.366Z,1.43
2018-01-05T22:45:37.952Z,1.70
2018-01-05T22:50:42.383Z,1.80
2018-01-05T23:00:56.546Z,2.40
2018-01-05T23:06:01.574Z,2.00
2018-01-05T23:11:04.315Z,1.80
2018-01-05T23:16:11.782Z,2.27
2018-01-05T23:21:15.173Z,1.60
2018-01-05T23:26:17.784Z,1.90
2018-01-05T23:31:21.137Z,1.40
2018-01-05T23:36:23.755Z,1.40
2018-01-05T23:41:26.522Z,1.43
2018-01-05T23:46:29.171Z,2.03
2018-01-05T23:51:31.805Z,1.60
2018-01-05T23:56:34.426Z,1.53
